| time (UTC) | temp F | wind direction | speed knots | gust knots | rain 1hr in | rain 24hr in | rain mn in | humidity % | barometer mb |
| 20260509135053 | 49 | 244 | 1.7 | 2.6 | 0.00 | 0.12 | 0.12 | 99 | 1011.7 |
| 20260509134549 | 50 | 247 | 2.6 | 4.3 | 0.00 | 0.12 | 0.12 | 99 | 1011.5 |
| 20260509134047 | 50 | 270 | 1.7 | 1.7 | 0.05 | 0.12 | 0.12 | 99 | 1011.8 |
| 20260509133544 | 50 | 269 | 1.7 | 2.6 | 0.00 | 0.11 | 0.11 | 99 | 1011.7 |
| 20260509133042 | 49 | 264 | 2.6 | 2.6 | 0.07 | 0.11 | 0.11 | 99 | 1011.7 |
| 20260509132540 | 49 | 296 | 2.6 | 2.6 | 0.07 | 0.11 | 0.11 | 99 | 1011.8 |
| 20260509132038 | 49 | 260 | 0.9 | 0.9 | 0.00 | 0.10 | 0.10 | 99 | 1011.9 |
| 20260509131533 | 49 | 239 | 1.7 | 2.6 | 0.00 | 0.10 | 0.10 | 99 | 1011.7 |
| 20260509131031 | 49 | 255 | 2.6 | 2.6 | 0.07 | 0.10 | 0.10 | 99 | 1012.1 |
| 20260509130526 | 49 | 270 | 1.7 | 2.6 | 0.07 | 0.10 | 0.10 | 99 | 1012.0 |
| 20260509130023 | 49 | 213 | 2.6 | 5.2 | 0.00 | 0.09 | 0.09 | 99 | 1011.9 |
| 20260509125520 | 49 | 230 | 3.5 | 6.1 | 0.05 | 0.09 | 0.09 | 99 | 1011.8 |
| 20260509125016 | 49 | 231 | 2.6 | 2.6 | 0.05 | 0.09 | 0.09 | 99 | 1012.0 |
| 20260509124513 | 49 | 272 | 0.9 | 0.9 | 0.07 | 0.08 | 0.08 | 99 | 1012.0 |
| 20260509124010 | 49 | 279 | 0.9 | 0.9 | 0.07 | 0.08 | 0.08 | 99 | 1011.9 |
| 20260509123508 | 49 | 271 | 1.7 | 1.7 | 0.00 | 0.07 | 0.07 | 99 | 1011.8 |
| 20260509123004 | 49 | 239 | 1.7 | 1.7 | 0.00 | 0.07 | 0.07 | 99 | 1011.7 |
| 20260509122500 | 49 | 229 | 1.7 | 1.7 | 0.00 | 0.07 | 0.07 | 99 | 1011.8 |
| 20260509121957 | 48 | 221 | 1.7 | 2.6 | 0.05 | 0.07 | 0.07 | 99 | 1011.9 |
| 20260509121454 | 48 | 248 | 0.9 | 0.9 | 0.05 | 0.07 | 0.07 | 99 | 1011.7 |
| 20260509120952 | 48 | 283 | 0.9 | 0.9 | 0.05 | 0.07 | 0.07 | 99 | 1011.9 |
| 20260509120450 | 48 | 274 | 1.7 | 1.7 | 0.00 | 0.06 | 0.06 | 99 | 1011.9 |
| 20260509115948 | 48 | 301 | 3.5 | 5.2 | 0.07 | 0.06 | 0.06 | 99 | 1011.7 |
| 20260509115445 | 48 | 305 | 1.7 | 1.7 | 0.07 | 0.06 | 0.06 | 99 | 1011.9 |
| 20260509114942 | 48 | 223 | 0.9 | 1.7 | 0.00 | 0.05 | 0.05 | 99 | 1012.0 |
| 20260509114440 | 48 | 272 | 3.5 | 5.2 | 0.05 | 0.05 | 0.05 | 98 | 1012.0 |
| 20260509113939 | 48 | 225 | 0.9 | 1.7 | 0.05 | 0.05 | 0.05 | 98 | 1012.0 |
| 20260509113436 | 48 | 293 | 3.5 | 6.1 | 0.05 | 0.05 | 0.05 | 98 | 1011.9 |
| 20260509112933 | 48 | 278 | 1.7 | 1.7 | 0.00 | 0.04 | 0.04 | 98 | 1012.1 |
| 20260509112431 | 48 | 261 | 0.9 | 1.7 | 0.00 | 0.04 | 0.04 | 98 | 1012.0 |
| 20260509111927 | 48 | 227 | 3.5 | 4.3 | 0.00 | 0.04 | 0.04 | 98 | 1011.6 |
| 20260509111425 | 48 | 268 | 2.6 | 4.3 | 0.00 | 0.04 | 0.04 | 98 | 1011.9 |
| 20260509110922 | 47 | 261 | 1.7 | 2.6 | 0.00 | 0.04 | 0.04 | 98 | 1012.3 |
| 20260509110417 | 47 | 208 | 2.6 | 5.2 | 0.00 | 0.04 | 0.04 | 98 | 1011.8 |
| 20260509105916 | 47 | 284 | 0.9 | 1.7 | 0.00 | 0.04 | 0.04 | 98 | 1011.9 |
| 20260509105414 | 47 | 194 | 1.7 | 1.7 | 0.07 | 0.04 | 0.04 | 99 | 1012.2 |
| 20260509104911 | 47 | 274 | 2.6 | 2.6 | 0.07 | 0.04 | 0.04 | 98 | 1011.8 |
| 20260509104408 | 47 | 237 | 2.6 | 2.6 | 0.00 | 0.03 | 0.03 | 98 | 1012.3 |
| 20260509103905 | 47 | 270 | 1.7 | 1.7 | 0.00 | 0.03 | 0.03 | 98 | 1012.1 |
| 20260509103402 | 47 | 274 | 0.9 | 0.9 | 0.05 | 0.03 | 0.03 | 98 | 1012.2 |
| 20260509102901 | 47 | 216 | 2.6 | 4.3 | 0.05 | 0.03 | 0.03 | 97 | 1011.9 |
| 20260509102358 | 47 | 195 | 0.9 | 0.9 | 0.00 | 0.02 | 0.02 | 97 | 1012.1 |
| 20260509101853 | 47 | 277 | 2.6 | 2.6 | 0.00 | 0.02 | 0.02 | 96 | 1012.0 |
| 20260509101349 | 47 | 192 | 1.7 | 2.6 | 0.07 | 0.02 | 0.02 | 96 | 1012.0 |
| 20260509100848 | 47 | 247 | 0.9 | 0.9 | 0.07 | 0.02 | 0.02 | 95 | 1012.3 |
| 20260509100344 | 48 | 216 | 1.7 | 2.6 | 0.00 | 0.01 | 0.01 | 94 | 1012.4 |
| 20260509095841 | 47 | 279 | 0.9 | 1.7 | 0.00 | 0.01 | 0.01 | 93 | 1012.1 |
| 20260509095339 | 47 | 285 | 1.7 | 2.6 | 0.00 | 0.01 | 0.01 | 93 | 1012.2 |
| 20260509094836 | 47 | 274 | 0.9 | 0.9 | 0.00 | 0.01 | 0.01 | 93 | 1012.3 |
| 20260509094332 | 47 | 258 | 0.9 | 0.9 | 0.00 | 0.01 | 0.01 | 93 | 1012.0 |
| 20260509093830 | 47 | 184 | 2.6 | 2.6 | 0.05 | 0.01 | 0.01 | 94 | 1012.1 |
| 20260509093326 | 47 | 221 | 1.7 | 1.7 | 0.05 | 0.01 | 0.01 | 95 | 1012.2 |
| 20260509092825 | 46 | 274 | 0.0 | 0.0 | 0.00 | 0.00 | 0.00 | 95 | 1012.1 |
| 20260509092323 | 46 | 263 | 0.0 | 0.9 | 0.00 | 0.00 | 0.00 | 95 | 1011.9 |
| 20260509091821 | 46 | 290 | 0.9 | 1.7 | 0.00 | 0.00 | 0.00 | 96 | 1012.2 |
| 20260509091317 | 46 | 242 | 1.7 | 1.7 | 0.00 | 0.00 | 0.00 | 96 | 1012.1 |
| 20260509090815 | 46 | 281 | 0.9 | 0.9 | 0.00 | 0.00 | 0.00 | 96 | 1012.1 |
| 20260509090312 | 46 | 189 | 2.6 | 4.3 | 0.00 | 0.00 | 0.00 | 97 | 1011.8 |
| 20260509085809 | 46 | 275 | 0.0 | 0.0 | 0.00 | 0.00 | 0.00 | 97 | 1011.7 |
| 20260509085307 | 46 | 267 | 0.0 | 0.0 | 0.00 | 0.00 | 0.00 | 96 | 1011.7 |
| 20260509084803 | 46 | 279 | 0.0 | 0.0 | 0.00 | 0.00 | 0.00 | 96 | 1011.6 |
| 20260509084300 | 46 | 268 | 0.0 | 0.0 | 0.00 | 0.00 | 0.00 | 96 | 1011.8 |
| 20260509083757 | 46 | 268 | 0.0 | 0.0 | 0.00 | 0.00 | 0.00 | 95 | 1011.7 |
| 20260509083254 | 46 | 268 | 0.0 | 0.0 | 0.00 | 0.00 | 0.00 | 95 | 1011.6 |
| 20260509082750 | 47 | 272 | 0.0 | 0.0 | 0.00 | 0.00 | 0.00 | 95 | 1011.8 |
| 20260509082247 | 46 | 271 | 0.0 | 0.0 | 0.00 | 0.00 | 0.00 | 95 | 1011.3 |
| 20260509081744 | 46 | 271 | 0.0 | 0.0 | 0.00 | 0.00 | 0.00 | 95 | 1011.6 |
| 20260509081242 | 46 | 271 | 0.0 | 0.0 | 0.00 | 0.00 | 0.00 | 95 | 1011.5 |
| 20260509080740 | 46 | 277 | 0.0 | 0.9 | 0.00 | 0.00 | 0.00 | 95 | 1011.3 |
| 20260509080237 | 46 | 273 | 0.0 | 0.0 | 0.00 | 0.00 | 0.00 | 96 | 1011.6 |
| 20260509075735 | 46 | 267 | 0.0 | 0.0 | 0.00 | 0.00 | 0.00 | 97 | 1011.5 |
| 20260509075232 | 46 | 270 | 0.0 | 0.0 | 0.00 | 0.00 | 0.00 | 97 | 1011.5 |
| 20260509074729 | 46 | 270 | 0.0 | 0.0 | 0.00 | 0.00 | 0.00 | 98 | 1011.3 |
| 20260509074227 | 45 | 270 | 0.0 | 0.0 | 0.00 | 0.00 | 0.00 | 97 | 1011.5 |
| 20260509073723 | 45 | 270 | 0.0 | 0.0 | 0.00 | 0.00 | 0.00 | 97 | 1011.3 |
| 20260509073219 | 45 | 270 | 0.0 | 0.0 | 0.00 | 0.00 | 0.00 | 97 | 1011.2 |
| 20260509072716 | 45 | 270 | 0.0 | 0.0 | 0.00 | 0.00 | 0.00 | 97 | 1011.6 |
| 20260509072213 | 45 | 270 | 0.0 | 0.0 | 0.00 | 0.00 | 0.00 | 97 | 1011.5 |
| 20260509071709 | 45 | 270 | 0.0 | 0.0 | 0.00 | 0.00 | 0.00 | 97 | 1011.5 |
| 20260509071207 | 45 | 270 | 0.0 | 0.0 | 0.00 | 0.00 | 0.00 | 97 | 1011.3 |
| 20260509070704 | 45 | 269 | 0.0 | 0.0 | 0.00 | 0.00 | 0.00 | 97 | 1011.6 |
| 20260509070200 | 45 | 269 | 0.0 | 0.0 | 0.00 | 0.00 | 0.00 | 97 | 1011.8 |
| 20260509065656 | 45 | 273 | 0.0 | 0.0 | 0.00 | 0.00 | 0.00 | 96 | 1011.5 |
| 20260509065152 | 46 | 273 | 0.0 | 0.0 | 0.00 | 0.00 | 0.00 | 96 | 1011.7 |
| 20260509064649 | 46 | 268 | 0.0 | 0.0 | 0.00 | 0.00 | 0.00 | 97 | 1012.0 |
| 20260509064147 | 46 | 268 | 0.0 | 0.0 | 0.00 | 0.00 | 0.00 | 96 | 1012.1 |
| 20260509063644 | 46 | 273 | 0.0 | 0.0 | 0.00 | 0.00 | 0.00 | 97 | 1012.0 |
| 20260509063140 | 46 | 267 | 0.0 | 0.0 | 0.00 | 0.00 | 0.00 | 97 | 1012.5 |
| 20260509062638 | 46 | 266 | 0.0 | 0.0 | 0.00 | 0.00 | 0.00 | 97 | 1012.5 |
| 20260509062135 | 46 | 262 | 0.0 | 0.9 | 0.00 | 0.00 | 0.00 | 97 | 1012.3 |
| 20260509061631 | 46 | 270 | 0.0 | 0.0 | 0.00 | 0.00 | 0.00 | 98 | 1012.6 |
| 20260509061129 | 46 | 270 | 0.0 | 0.0 | 0.00 | 0.00 | 0.00 | 98 | 1012.5 |
| 20260509060626 | 46 | 270 | 0.0 | 0.0 | 0.00 | 0.00 | 0.00 | 98 | 1012.4 |
| 20260509060122 | 46 | 270 | 0.0 | 0.0 | 0.00 | 0.00 | 0.00 | 98 | 1012.8 |
| 20260509055618 | 46 | 270 | 0.0 | 0.0 | 0.00 | 0.00 | 0.00 | 98 | 1012.8 |
| 20260509055114 | 46 | 267 | 0.0 | 0.0 | 0.00 | 0.00 | 0.00 | 98 | 1013.1 |
| 20260509054611 | 46 | 270 | 0.0 | 0.0 | 0.00 | 0.00 | 0.00 | 98 | 1013.2 |
| 20260509054108 | 46 | 272 | 0.0 | 0.0 | 0.00 | 0.00 | 0.00 | 98 | 1013.1 |
| 20260509053607 | 46 | 262 | 0.0 | 0.9 | 0.00 | 0.00 | 0.00 | 98 | 1013.2 |
| 20260509053103 | 46 | 273 | 0.0 | 0.0 | 0.00 | 0.00 | 0.00 | 98 | 1013.2 |
| 20260509052601 | 46 | 267 | 0.0 | 0.0 | 0.00 | 0.00 | 0.00 | 98 | 1013.3 |
| 20260509052059 | 46 | 273 | 0.0 | 0.0 | 0.00 | 0.00 | 0.00 | 98 | 1013.2 |
| 20260509051557 | 46 | 275 | 0.0 | 0.0 | 0.00 | 0.00 | 0.00 | 98 | 1013.2 |
| 20260509051053 | 46 | 276 | 0.0 | 0.0 | 0.00 | 0.00 | 0.00 | 98 | 1013.4 |
| 20260509050550 | 46 | 261 | 0.0 | 0.0 | 0.00 | 0.00 | 0.00 | 98 | 1013.5 |
| 20260509050046 | 46 | 277 | 0.0 | 0.0 | 0.00 | 0.00 | 0.00 | 98 | 1013.3 |
| 20260509045544 | 46 | 277 | 0.0 | 0.0 | 0.00 | 0.00 | 0.00 | 98 | 1013.5 |
| 20260509045041 | 46 | 278 | 0.0 | 0.0 | 0.00 | 0.00 | 0.00 | 98 | 1013.7 |
| 20260509044538 | 46 | 279 | 0.0 | 0.0 | 0.00 | 0.00 | 0.00 | 98 | 1013.5 |
| 20260509044036 | 46 | 279 | 0.0 | 0.9 | 0.00 | 0.00 | 0.00 | 98 | 1013.6 |
| 20260509043532 | 46 | 280 | 0.0 | 0.0 | 0.00 | 0.00 | 0.00 | 98 | 1013.6 |
| 20260509043028 | 46 | 281 | 0.0 | 0.0 | 0.00 | 0.00 | 0.00 | 97 | 1013.5 |
| 20260509042524 | 46 | 279 | 0.0 | 0.0 | 0.00 | 0.00 | 0.00 | 97 | 1013.8 |
| 20260509042020 | 46 | 279 | 0.0 | 0.0 | 0.00 | 0.00 | 0.00 | 97 | 1013.9 |
| 20260509041517 | 46 | 275 | 0.0 | 0.0 | 0.00 | 0.00 | 0.00 | 97 | 1014.2 |
| 20260509041015 | 46 | 284 | 0.0 | 0.0 | 0.00 | 0.00 | 0.00 | 97 | 1014.1 |
| 20260509040513 | 46 | 284 | 0.0 | 0.0 | 0.00 | 0.00 | 0.00 | 96 | 1014.1 |
| 20260509040010 | 46 | 284 | 0.0 | 0.0 | 0.00 | 0.00 | 0.00 | 97 | 1014.3 |
| 20260509035507 | 46 | 284 | 0.0 | 0.0 | 0.00 | 0.00 | 0.00 | 97 | 1014.3 |
| 20260509035003 | 46 | 284 | 0.0 | 0.0 | 0.00 | 0.00 | 0.00 | 97 | 1014.2 |
| 20260509034502 | 46 | 284 | 0.0 | 0.0 | 0.00 | 0.00 | 0.00 | 96 | 1014.2 |
| 20260509033958 | 46 | 291 | 0.0 | 0.0 | 0.00 | 0.00 | 0.00 | 96 | 1014.3 |
| 20260509033454 | 46 | 291 | 0.0 | 0.0 | 0.00 | 0.00 | 0.00 | 97 | 1014.1 |
| 20260509032951 | 46 | 293 | 0.0 | 0.0 | 0.00 | 0.00 | 0.00 | 97 | 1014.2 |
| 20260509032449 | 46 | 289 | 0.0 | 0.0 | 0.00 | 0.00 | 0.00 | 97 | 1014.2 |
| 20260509031946 | 46 | 290 | 0.0 | 0.0 | 0.00 | 0.00 | 0.00 | 97 | 1014.1 |
| 20260509031443 | 46 | 282 | 0.0 | 0.0 | 0.00 | 0.00 | 0.00 | 97 | 1014.2 |
| 20260509030941 | 46 | 288 | 0.0 | 0.0 | 0.00 | 0.00 | 0.00 | 97 | 1014.2 |
| 20260509030439 | 46 | 284 | 0.0 | 0.0 | 0.00 | 0.00 | 0.00 | 97 | 1014.1 |
| 20260509025935 | 46 | 296 | 0.9 | 0.9 | 0.00 | 0.00 | 0.00 | 96 | 1014.3 |
| 20260509025431 | 47 | 290 | 0.0 | 0.0 | 0.00 | 0.00 | 0.00 | 96 | 1014.3 |
| 20260509024926 | 47 | 288 | 0.9 | 0.9 | 0.00 | 0.00 | 0.00 | 95 | 1014.1 |
| 20260509024423 | 47 | 288 | 0.0 | 0.9 | 0.00 | 0.00 | 0.00 | 94 | 1014.1 |
| 20260509023920 | 47 | 284 | 0.0 | 0.0 | 0.00 | 0.00 | 0.00 | 94 | 1013.9 |
| 20260509023417 | 47 | 289 | 0.0 | 0.0 | 0.00 | 0.00 | 0.00 | 93 | 1014.1 |
| 20260509022914 | 47 | 277 | 0.0 | 0.0 | 0.00 | 0.00 | 0.00 | 93 | 1014.0 |
| 20260509022411 | 47 | 289 | 0.0 | 0.0 | 0.00 | 0.00 | 0.00 | 92 | 1013.9 |
| 20260509021908 | 47 | 275 | 0.0 | 0.0 | 0.00 | 0.00 | 0.00 | 91 | 1013.9 |
| 20260509021405 | 47 | 284 | 0.0 | 0.0 | 0.00 | 0.00 | 0.00 | 91 | 1014.1 |
| 20260509020903 | 47 | 284 | 0.0 | 0.0 | 0.00 | 0.00 | 0.00 | 91 | 1013.8 |
| 20260509020401 | 47 | 278 | 0.0 | 0.0 | 0.00 | 0.00 | 0.00 | 91 | 1013.8 |
| 20260509015857 | 47 | 276 | 0.0 | 0.0 | 0.00 | 0.00 | 0.00 | 91 | 1013.8 |
| 20260509015356 | 47 | 276 | 0.0 | 0.0 | 0.00 | 0.00 | 0.00 | 91 | 1013.5 |
| 20260509014852 | 47 | 276 | 0.0 | 0.0 | 0.00 | 0.00 | 0.00 | 91 | 1013.7 |
| 20260509014349 | 47 | 276 | 0.0 | 0.0 | 0.00 | 0.00 | 0.00 | 90 | 1013.5 |
| 20260509013845 | 47 | 276 | 0.0 | 0.0 | 0.00 | 0.00 | 0.00 | 91 | 1013.6 |
| 20260509013342 | 47 | 275 | 0.0 | 0.0 | 0.00 | 0.00 | 0.00 | 90 | 1013.3 |
| 20260509012838 | 48 | 284 | 0.0 | 0.0 | 0.00 | 0.00 | 0.00 | 90 | 1013.7 |
| 20260509012335 | 48 | 276 | 0.0 | 0.0 | 0.00 | 0.00 | 0.00 | 90 | 1013.5 |
| 20260509011832 | 48 | 281 | 0.0 | 0.0 | 0.00 | 0.00 | 0.00 | 90 | 1013.8 |
| 20260509011330 | 48 | 274 | 0.0 | 0.0 | 0.00 | 0.00 | 0.00 | 90 | 1013.6 |
| 20260509010827 | 48 | 275 | 0.0 | 0.0 | 0.00 | 0.00 | 0.00 | 89 | 1013.7 |
| 20260509010325 | 48 | 274 | 0.0 | 0.0 | 0.00 | 0.00 | 0.00 | 89 | 1013.8 |
| 20260509005822 | 48 | 274 | 0.0 | 0.0 | 0.00 | 0.00 | 0.00 | 88 | 1013.8 |
| 20260509005320 | 48 | 276 | 0.0 | 0.0 | 0.00 | 0.00 | 0.00 | 87 | 1014.0 |
| 20260509004820 | 48 | 271 | 0.0 | 0.0 | 0.00 | 0.00 | 0.00 | 85 | 1013.8 |
| 20260509004316 | 48 | 270 | 0.0 | 0.0 | 0.00 | 0.00 | 0.00 | 85 | 1013.8 |
| 20260509003814 | 48 | 270 | 0.0 | 0.0 | 0.00 | 0.00 | 0.00 | 84 | 1013.6 |
| 20260509003312 | 48 | 270 | 0.0 | 0.0 | 0.00 | 0.00 | 0.00 | 83 | 1013.7 |
| 20260509002809 | 49 | 268 | 0.0 | 0.0 | 0.00 | 0.00 | 0.00 | 83 | 1013.5 |
| 20260509002306 | 49 | 268 | 0.0 | 0.0 | 0.00 | 0.00 | 0.00 | 82 | 1013.7 |
| 20260509001804 | 49 | 268 | 0.0 | 0.0 | 0.00 | 0.00 | 0.00 | 82 | 1013.7 |
| 20260509001259 | 49 | 268 | 0.0 | 0.0 | 0.00 | 0.00 | 0.00 | 82 | 1013.6 |
| 20260509000757 | 49 | 268 | 0.0 | 0.0 | 0.00 | 0.00 | 0.00 | 82 | 1013.5 |
| 20260509000256 | 49 | 268 | 0.0 | 0.0 | 0.00 | 0.00 | 0.00 | 80 | 1013.4 |
| 20260508235751 | 50 | 268 | 0.0 | 0.0 | 0.00 | 0.00 | 0.00 | 79 | 1013.4 |
| 20260508235248 | 50 | 268 | 0.0 | 0.0 | 0.00 | 0.00 | 0.00 | 81 | 1013.3 |
| 20260508234745 | 50 | 268 | 0.0 | 0.0 | 0.00 | 0.00 | 0.00 | 80 | 1013.4 |
| 20260508234241 | 50 | 270 | 0.0 | 0.0 | 0.00 | 0.00 | 0.00 | 79 | 1013.3 |
| 20260508233735 | 51 | 260 | 0.0 | 0.0 | 0.00 | 0.00 | 0.00 | 79 | 1013.5 |
| 20260508233233 | 51 | 274 | 0.0 | 0.0 | 0.00 | 0.00 | 0.00 | 78 | 1013.4 |
| 20260508232730 | 51 | 270 | 0.0 | 0.9 | 0.00 | 0.00 | 0.00 | 77 | 1013.5 |
| 20260508232226 | 51 | 252 | 0.9 | 0.9 | 0.00 | 0.00 | 0.00 | 77 | 1013.6 |
| 20260508231724 | 51 | 250 | 1.7 | 2.6 | 0.00 | 0.00 | 0.00 | 76 | 1013.4 |
| 20260508231221 | 51 | 262 | 0.9 | 0.9 | 0.00 | 0.00 | 0.00 | 75 | 1013.4 |
| 20260508230718 | 51 | 239 | 0.9 | 0.9 | 0.00 | 0.00 | 0.00 | 74 | 1013.6 |
| 20260508230214 | 51 | 264 | 1.7 | 1.7 | 0.00 | 0.00 | 0.00 | 74 | 1013.6 |
| 20260508225712 | 51 | 267 | 0.0 | 0.9 | 0.00 | 0.00 | 0.00 | 74 | 1013.5 |
| 20260508225208 | 52 | 281 | 0.9 | 0.9 | 0.00 | 0.00 | 0.00 | 74 | 1013.5 |
| 20260508224706 | 52 | 264 | 0.9 | 1.7 | 0.00 | 0.00 | 0.00 | 74 | 1013.5 |
| 20260508224203 | 52 | 269 | 0.0 | 0.9 | 0.00 | 0.00 | 0.00 | 74 | 1013.4 |
| 20260508223701 | 52 | 244 | 0.0 | 0.9 | 0.00 | 0.00 | 0.00 | 74 | 1013.3 |
| 20260508223158 | 52 | 253 | 0.9 | 0.9 | 0.00 | 0.00 | 0.00 | 74 | 1013.4 |
| 20260508222655 | 52 | 246 | 0.9 | 0.9 | 0.00 | 0.00 | 0.00 | 74 | 1013.4 |
| 20260508222152 | 52 | 264 | 0.0 | 0.9 | 0.00 | 0.00 | 0.00 | 75 | 1013.5 |
| 20260508221648 | 51 | 261 | 0.0 | 0.0 | 0.00 | 0.00 | 0.00 | 76 | 1013.4 |
| 20260508221144 | 51 | 241 | 0.9 | 1.7 | 0.00 | 0.00 | 0.00 | 75 | 1013.4 |
| 20260508220641 | 51 | 268 | 1.7 | 1.7 | 0.00 | 0.00 | 0.00 | 75 | 1013.4 |
| 20260508220138 | 52 | 237 | 0.9 | 1.7 | 0.00 | 0.00 | 0.00 | 75 | 1013.4 |
| 20260508215634 | 52 | 214 | 1.7 | 1.7 | 0.00 | 0.00 | 0.00 | 75 | 1013.2 |
| 20260508215131 | 52 | 247 | 1.7 | 1.7 | 0.00 | 0.00 | 0.00 | 76 | 1013.1 |
| 20260508214628 | 52 | 209 | 3.5 | 5.2 | 0.00 | 0.00 | 0.00 | 76 | 1013.4 |
| 20260508214125 | 51 | 264 | 1.7 | 4.3 | 0.00 | 0.00 | 0.00 | 76 | 1013.5 |
| 20260508213622 | 51 | 228 | 3.5 | 5.2 | 0.00 | 0.00 | 0.00 | 76 | 1013.8 |
| 20260508213118 | 52 | 271 | 0.9 | 0.9 | 0.00 | 0.00 | 0.00 | 76 | 1013.5 |
| 20260508212615 | 52 | 273 | 0.9 | 1.7 | 0.00 | 0.00 | 0.00 | 76 | 1013.7 |
| 20260508212111 | 53 | 225 | 1.7 | 1.7 | 0.00 | 0.00 | 0.00 | 76 | 1013.7 |
| 20260508211606 | 53 | 254 | 0.9 | 0.9 | 0.00 | 0.00 | 0.00 | 77 | 1013.7 |
| 20260508211103 | 53 | 275 | 2.6 | 4.3 | 0.00 | 0.00 | 0.00 | 75 | 1013.4 |
| 20260508210559 | 53 | 306 | 0.9 | 0.9 | 0.00 | 0.00 | 0.00 | 75 | 1013.6 |
| 20260508210057 | 53 | 257 | 1.7 | 2.6 | 0.00 | 0.00 | 0.00 | 73 | 1013.6 |
| 20260508205554 | 53 | 270 | 2.6 | 2.6 | 0.00 | 0.00 | 0.00 | 74 | 1013.6 |
| 20260508205050 | 53 | 262 | 4.3 | 7.8 | 0.00 | 0.00 | 0.00 | 75 | 1013.6 |
| 20260508204547 | 53 | 229 | 2.6 | 5.2 | 0.00 | 0.00 | 0.00 | 75 | 1013.5 |
| 20260508204043 | 53 | 294 | 1.7 | 1.7 | 0.00 | 0.00 | 0.00 | 76 | 1013.5 |
| 20260508203539 | 53 | 285 | 1.7 | 1.7 | 0.00 | 0.00 | 0.00 | 75 | 1013.8 |
| 20260508203035 | 53 | 234 | 0.9 | 1.7 | 0.00 | 0.00 | 0.00 | 74 | 1013.7 |
| 20260508202532 | 54 | 219 | 0.9 | 0.9 | 0.00 | 0.00 | 0.00 | 73 | 1013.8 |
| 20260508202029 | 55 | 250 | 0.9 | 1.7 | 0.00 | 0.00 | 0.00 | 73 | 1013.7 |
| 20260508201526 | 55 | 235 | 1.7 | 2.6 | 0.00 | 0.00 | 0.00 | 70 | 1013.6 |
| 20260508201022 | 55 | 253 | 1.7 | 2.6 | 0.00 | 0.00 | 0.00 | 68 | 1013.7 |
| 20260508200520 | 56 | 224 | 2.6 | 4.3 | 0.00 | 0.00 | 0.00 | 67 | 1013.6 |
| 20260508200015 | 56 | 246 | 2.6 | 5.2 | 0.00 | 0.00 | 0.00 | 67 | 1013.8 |
| 20260508195512 | 56 | 261 | 1.7 | 1.7 | 0.00 | 0.00 | 0.00 | 66 | 1013.8 |
| 20260508195008 | 56 | 210 | 1.7 | 4.3 | 0.00 | 0.00 | 0.00 | 68 | 1013.8 |
| 20260508194505 | 55 | 319 | 0.9 | 1.7 | 0.00 | 0.00 | 0.00 | 68 | 1014.0 |
| 20260508194003 | 55 | 194 | 2.6 | 2.6 | 0.00 | 0.00 | 0.00 | 68 | 1013.9 |
| 20260508193459 | 55 | 300 | 4.3 | 6.1 | 0.00 | 0.00 | 0.00 | 68 | 1014.0 |
| 20260508192955 | 55 | 276 | 0.9 | 0.9 | 0.00 | 0.00 | 0.00 | 68 | 1013.8 |
| 20260508192452 | 55 | 270 | 2.6 | 2.6 | 0.00 | 0.00 | 0.00 | 68 | 1013.8 |
| 20260508191949 | 55 | 245 | 2.6 | 5.2 | 0.00 | 0.00 | 0.00 | 68 | 1013.9 |
| 20260508191446 | 55 | 249 | 3.5 | 6.1 | 0.00 | 0.00 | 0.00 | 68 | 1013.8 |
| 20260508190943 | 55 | 247 | 1.7 | 1.7 | 0.00 | 0.00 | 0.00 | 67 | 1013.9 |
| 20260508190441 | 56 | 216 | 3.5 | 5.2 | 0.00 | 0.00 | 0.00 | 65 | 1014.0 |
| 20260508185936 | 57 | 272 | 2.6 | 5.2 | 0.00 | 0.00 | 0.00 | 60 | 1014.0 |
| 20260508185434 | 57 | 234 | 1.7 | 1.7 | 0.00 | 0.00 | 0.00 | 60 | 1013.9 |
| 20260508184931 | 57 | 283 | 1.7 | 2.6 | 0.00 | 0.00 | 0.00 | 60 | 1013.8 |
| 20260508184428 | 57 | 239 | 1.7 | 1.7 | 0.00 | 0.00 | 0.00 | 59 | 1013.8 |
| 20260508183925 | 57 | 163 | 4.3 | 6.1 | 0.00 | 0.00 | 0.00 | 58 | 1013.7 |
| 20260508183422 | 56 | 249 | 2.6 | 4.3 | 0.00 | 0.00 | 0.00 | 59 | 1013.9 |
| 20260508182917 | 56 | 316 | 1.7 | 1.7 | 0.00 | 0.00 | 0.00 | 62 | 1013.8 |
| 20260508182415 | 56 | 204 | 3.5 | 7.0 | 0.00 | 0.00 | 0.00 | 60 | 1014.0 |
| 20260508181909 | 56 | 265 | 0.9 | 1.7 | 0.00 | 0.00 | 0.00 | 59 | 1013.8 |
| 20260508181407 | 57 | 273 | 4.3 | 5.2 | 0.00 | 0.00 | 0.00 | 57 | 1013.9 |
| 20260508180904 | 57 | 270 | 5.2 | 8.7 | 0.00 | 0.00 | 0.00 | 57 | 1014.0 |
| 20260508180400 | 56 | 260 | 3.5 | 4.3 | 0.00 | 0.00 | 0.00 | 57 | 1013.7 |
| 20260508175856 | 56 | 243 | 2.6 | 2.6 | 0.00 | 0.00 | 0.00 | 57 | 1014.1 |
| 20260508175353 | 56 | 259 | 3.5 | 6.1 | 0.00 | 0.00 | 0.00 | 54 | 1013.9 |
| 20260508174851 | 57 | 214 | 3.5 | 5.2 | 0.00 | 0.00 | 0.00 | 53 | 1013.7 |
| 20260508174348 | 58 | 270 | 3.5 | 4.3 | 0.00 | 0.00 | 0.00 | 53 | 1013.9 |
| 20260508173839 | 57 | 277 | 0.9 | 1.7 | 0.00 | 0.00 | 0.00 | 55 | 1014.0 |
| 20260508173336 | 57 | 204 | 1.7 | 1.7 | 0.00 | 0.00 | 0.00 | 55 | 1014.2 |
| 20260508172832 | 58 | 278 | 1.7 | 1.7 | 0.00 | 0.00 | 0.00 | 56 | 1014.2 |
| 20260508172330 | 58 | 243 | 2.6 | 2.6 | 0.00 | 0.00 | 0.00 | 54 | 1014.2 |
| 20260508171826 | 58 | 280 | 0.9 | 0.9 | 0.00 | 0.00 | 0.00 | 53 | 1014.2 |
| 20260508171322 | 58 | 215 | 1.7 | 1.7 | 0.00 | 0.00 | 0.00 | 53 | 1014.2 |
| 20260508170819 | 57 | 215 | 0.9 | 1.7 | 0.00 | 0.00 | 0.00 | 57 | 1014.6 |
| 20260508170318 | 57 | 254 | 0.9 | 0.9 | 0.00 | 0.00 | 0.00 | 54 | 1014.3 |
| 20260508165814 | 58 | 221 | 1.7 | 1.7 | 0.00 | 0.00 | 0.00 | 54 | 1014.4 |
| 20260508165311 | 58 | 260 | 1.7 | 2.6 | 0.00 | 0.00 | 0.00 | 54 | 1014.4 |
| 20260508164807 | 57 | 217 | 2.6 | 2.6 | 0.00 | 0.00 | 0.00 | 56 | 1014.6 |
| 20260508164304 | 58 | 188 | 4.3 | 6.1 | 0.00 | 0.00 | 0.00 | 53 | 1014.9 |
| 20260508163802 | 58 | 208 | 3.5 | 4.3 | 0.00 | 0.00 | 0.00 | 55 | 1014.8 |
| 20260508163259 | 57 | 321 | 5.2 | 6.1 | 0.00 | 0.00 | 0.00 | 56 | 1014.9 |
| 20260508162755 | 58 | 244 | 3.5 | 6.1 | 0.00 | 0.00 | 0.00 | 54 | 1014.9 |
| 20260508162252 | 57 | 218 | 1.7 | 1.7 | 0.00 | 0.00 | 0.00 | 55 | 1014.5 |
| 20260508161749 | 58 | 17 | 1.7 | 1.7 | 0.00 | 0.00 | 0.00 | 55 | 1014.9 |
| 20260508161246 | 58 | 275 | 2.6 | 4.3 | 0.00 | 0.00 | 0.00 | 53 | 1014.9 |
| 20260508160744 | 57 | 289 | 0.9 | 0.9 | 0.00 | 0.00 | 0.00 | 58 | 1014.9 |
| 20260508160242 | 57 | 217 | 2.6 | 4.3 | 0.00 | 0.00 | 0.00 | 55 | 1015.1 |
| 20260508155738 | 56 | 206 | 0.9 | 1.7 | 0.00 | 0.00 | 0.00 | 55 | 1015.0 |
| 20260508155235 | 57 | 259 | 2.6 | 5.2 | 0.00 | 0.00 | 0.00 | 57 | 1015.2 |
| 20260508154732 | 55 | 249 | 2.6 | 4.3 | 0.00 | 0.00 | 0.00 | 58 | 1015.2 |
| 20260508154230 | 55 | 287 | 2.6 | 2.6 | 0.00 | 0.00 | 0.00 | 58 | 1015.1 |
| 20260508153726 | 55 | 84 | 1.7 | 1.7 | 0.00 | 0.00 | 0.00 | 58 | 1015.2 |
| 20260508153223 | 55 | 168 | 3.5 | 5.2 | 0.00 | 0.00 | 0.00 | 57 | 1015.2 |
| 20260508152720 | 55 | 202 | 2.6 | 2.6 | 0.00 | 0.00 | 0.00 | 58 | 1015.1 |
| 20260508152215 | 54 | 178 | 1.7 | 4.3 | 0.00 | 0.00 | 0.00 | 59 | 1015.3 |
| 20260508151712 | 54 | 273 | 4.3 | 6.1 | 0.00 | 0.00 | 0.00 | 57 | 1015.0 |
| 20260508151209 | 53 | 293 | 0.9 | 1.7 | 0.00 | 0.00 | 0.00 | 59 | 1015.3 |
| 20260508150706 | 53 | 164 | 3.5 | 5.2 | 0.00 | 0.00 | 0.00 | 57 | 1015.2 |
| 20260508150203 | 52 | 289 | 3.5 | 5.2 | 0.00 | 0.00 | 0.00 | 60 | 1015.3 |
| 20260508145658 | 52 | 188 | 1.7 | 2.6 | 0.00 | 0.00 | 0.00 | 60 | 1015.1 |
| 20260508145154 | 52 | 226 | 2.6 | 5.2 | 0.00 | 0.00 | 0.00 | 58 | 1015.5 |
| 20260508144652 | 53 | 211 | 1.7 | 1.7 | 0.00 | 0.00 | 0.00 | 58 | 1015.2 |
| 20260508144150 | 53 | 232 | 1.7 | 1.7 | 0.00 | 0.00 | 0.00 | 56 | 1015.2 |
| 20260508143647 | 52 | 293 | 2.6 | 4.3 | 0.00 | 0.00 | 0.00 | 58 | 1015.3 |
| 20260508143144 | 53 | 198 | 1.7 | 1.7 | 0.00 | 0.00 | 0.00 | 56 | 1015.2 |
| 20260508142640 | 52 | 199 | 3.5 | 6.1 | 0.00 | 0.00 | 0.00 | 58 | 1015.3 |
| 20260508142137 | 52 | 201 | 2.6 | 4.3 | 0.00 | 0.00 | 0.00 | 58 | 1015.1 |
| 20260508141633 | 51 | 254 | 0.9 | 0.9 | 0.00 | 0.00 | 0.00 | 61 | 1015.1 |
| 20260508141131 | 50 | 289 | 2.6 | 2.6 | 0.00 | 0.00 | 0.00 | 62 | 1015.2 |
| 20260508140629 | 49 | 270 | 1.7 | 2.6 | 0.00 | 0.00 | 0.00 | 63 | 1015.3 |
| 20260508140125 | 49 | 209 | 1.7 | 2.6 | 0.00 | 0.00 | 0.00 | 64 | 1015.5 |
| 20260508135620 | 49 | 277 | 2.6 | 2.6 | 0.00 | 0.00 | 0.00 | 64 | 1015.4 |